Terminal Aerodrome Forecast
Issued by NWS Northern Indiana

Home | Current Version | Previous Version | Text Only | Print | Product List | Glossary On
Versions: 1 2 3 4 5 6 7 8 9 10 11 12 13 14
867
FTUS43 KIWX 180540
TAFFWA
TAF
KFWA 180540Z 1806/1906 22007KT P6SM OVC040
     FM180800 22007KT P6SM OVC008
     FM181000 22006KT 5SM -DZ BR OVC005
      TEMPO 1811/1815 1SM BR OVC003
     FM181600 24009KT P6SM OVC006
     FM181900 24009KT P6SM SCT010 BKN025
     FM190400 23010KT P6SM SCT025=

USA.gov is the U.S. government's official web portal to all federal, state and local government web resources and services.